North Greece, New York
Current Conditions -  °F | °C
As of 12:54 PM on Monday 26 Jan 2015 (Local Time) from KROC Reporting Station
Light Snow Light Snow  
Wind Chill:   Ceiling: 2000
Heat Index: 16°   Visibility: 2mi
Dew Point:   Wind: 14mph
Humidity: 74%   Direction: 80°E
Pressure: 29.94"   Gusts: NA
Location:  43.25°N, 77.73°W
Report Text: KROC 261754Z 08012KT 2SM -SN BKN020 OVC035 M09/M13 A2994 RMK AO2 SLP153 4/001 P0001 60002 T10891128 11089 21117 58020
Loading
Personal Weather Stations






























Interactive Weather Map New forecast layout! Learn more

10-Day Weather Forecast

Advertisements
Track Severe Weather on mobile